sensor_id;sensor_type;location;lat;lon;timestamp;P1;durP1;ratioP1;P2;durP2;ratioP2
76548;SDS011;65391;52.068;4.542;2024-01-30T00:00:38;23.3;;;13.1;;
76548;SDS011;65391;52.068;4.542;2024-01-30T00:03:03;19.8;;;10.1;;
76548;SDS011;65391;52.068;4.542;2024-01-30T00:05:28;19.8;;;10.1;;
76548;SDS011;65391;52.068;4.542;2024-01-30T00:07:55;19.8;;;10.1;;
76548;SDS011;65391;52.068;4.542;2024-01-30T00:10:18;19.8;;;10.1;;
76548;SDS011;65391;52.068;4.542;2024-01-30T00:12:43;19.8;;;10.1;;
76548;SDS011;65391;52.068;4.542;2024-01-30T00:15:08;18.2;;;9.6;;
76548;SDS011;65391;52.068;4.542;2024-01-30T00:17:33;18.2;;;9.6;;
76548;SDS011;65391;52.068;4.542;2024-01-30T00:19:58;18.2;;;9.6;;
76548;SDS011;65391;52.068;4.542;2024-01-30T00:22:23;18.2;;;9.6;;
76548;SDS011;65391;52.068;4.542;2024-01-30T00:24:48;17.5;;;9;;
76548;SDS011;65391;52.068;4.542;2024-01-30T00:27:13;17.5;;;9;;
76548;SDS011;65391;52.068;4.542;2024-01-30T00:29:38;17.5;;;9;;
76548;SDS011;65391;52.068;4.542;2024-01-30T00:32:03;17.5;;;9;;
76548;SDS011;65391;52.068;4.542;2024-01-30T00:34:28;14.4;;;8.4;;
76548;SDS011;65391;52.068;4.542;2024-01-30T00:36:53;14.4;;;8.4;;
76548;SDS011;65391;52.068;4.542;2024-01-30T00:39:18;14.4;;;8.4;;
76548;SDS011;65391;52.068;4.542;2024-01-30T00:41:43;14.4;;;8.4;;
76548;SDS011;65391;52.068;4.542;2024-01-30T00:44:08;13.1;;;8;;
76548;SDS011;65391;52.068;4.542;2024-01-30T00:46:33;13.1;;;8;;
76548;SDS011;65391;52.068;4.542;2024-01-30T00:48:58;13.1;;;8;;
76548;SDS011;65391;52.068;4.542;2024-01-30T00:51:23;13.1;;;8;;
76548;SDS011;65391;52.068;4.542;2024-01-30T00:53:48;15.4;;;8.3;;
76548;SDS011;65391;52.068;4.542;2024-01-30T00:56:13;15.4;;;8.3;;
76548;SDS011;65391;52.068;4.542;2024-01-30T00:58:38;15.4;;;8.3;;
76548;SDS011;65391;52.068;4.542;2024-01-30T01:01:03;15.4;;;8.3;;
76548;SDS011;65391;52.068;4.542;2024-01-30T01:03:28;18.8;;;9.2;;
76548;SDS011;65391;52.068;4.542;2024-01-30T01:05:53;18.8;;;9.2;;
76548;SDS011;65391;52.068;4.542;2024-01-30T01:08:18;18.8;;;9.2;;
76548;SDS011;65391;52.068;4.542;2024-01-30T01:10:43;18.8;;;9.2;;
76548;SDS011;65391;52.068;4.542;2024-01-30T01:13:08;14.8;;;8.4;;
76548;SDS011;65391;52.068;4.542;2024-01-30T01:15:33;14.8;;;8.4;;
76548;SDS011;65391;52.068;4.542;2024-01-30T01:17:58;14.8;;;8.4;;
76548;SDS011;65391;52.068;4.542;2024-01-30T01:20:23;14.8;;;8.4;;
76548;SDS011;65391;52.068;4.542;2024-01-30T01:22:48;14.8;;;8.4;;
76548;SDS011;65391;52.068;4.542;2024-01-30T01:25:13;14.2;;;7.8;;
76548;SDS011;65391;52.068;4.542;2024-01-30T01:27:38;14.2;;;7.8;;
76548;SDS011;65391;52.068;4.542;2024-01-30T01:30:03;14.2;;;7.8;;
76548;SDS011;65391;52.068;4.542;2024-01-30T01:32:28;14.2;;;7.8;;
76548;SDS011;65391;52.068;4.542;2024-01-30T01:34:53;13.8;;;7.3;;
76548;SDS011;65391;52.068;4.542;2024-01-30T01:37:18;13.8;;;7.3;;
76548;SDS011;65391;52.068;4.542;2024-01-30T01:39:43;13.8;;;7.3;;
76548;SDS011;65391;52.068;4.542;2024-01-30T01:42:08;13.8;;;7.3;;
76548;SDS011;65391;52.068;4.542;2024-01-30T01:44:33;12.2;;;6.6;;
76548;SDS011;65391;52.068;4.542;2024-01-30T01:46:58;12.2;;;6.6;;
76548;SDS011;65391;52.068;4.542;2024-01-30T01:49:23;12.2;;;6.6;;
76548;SDS011;65391;52.068;4.542;2024-01-30T01:51:48;12.2;;;6.6;;
76548;SDS011;65391;52.068;4.542;2024-01-30T01:54:13;18.9;;;8.3;;
76548;SDS011;65391;52.068;4.542;2024-01-30T01:56:38;18.9;;;8.3;;
76548;SDS011;65391;52.068;4.542;2024-01-30T01:59:05;18.9;;;8.3;;
76548;SDS011;65391;52.068;4.542;2024-01-30T02:01:28;18.9;;;8.3;;
76548;SDS011;65391;52.068;4.542;2024-01-30T02:03:53;14.6;;;7.9;;
76548;SDS011;65391;52.068;4.542;2024-01-30T02:06:18;14.6;;;7.9;;
76548;SDS011;65391;52.068;4.542;2024-01-30T02:08:43;14.6;;;7.9;;
76548;SDS011;65391;52.068;4.542;2024-01-30T02:11:08;14.6;;;7.9;;
76548;SDS011;65391;52.068;4.542;2024-01-30T02:13:33;15.7;;;7.3;;
76548;SDS011;65391;52.068;4.542;2024-01-30T02:15:58;15.7;;;7.3;;
76548;SDS011;65391;52.068;4.542;2024-01-30T02:18:23;15.7;;;7.3;;
76548;SDS011;65391;52.068;4.542;2024-01-30T02:20:51;15.7;;;7.3;;
76548;SDS011;65391;52.068;4.542;2024-01-30T02:23:13;18;;;8;;
76548;SDS011;65391;52.068;4.542;2024-01-30T02:25:39;18;;;8;;
76548;SDS011;65391;52.068;4.542;2024-01-30T02:28:03;18;;;8;;
76548;SDS011;65391;52.068;4.542;2024-01-30T02:30:28;18;;;8;;
76548;SDS011;65391;52.068;4.542;2024-01-30T02:32:53;18;;;8;;
76548;SDS011;65391;52.068;4.542;2024-01-30T02:35:18;14.4;;;7.5;;
76548;SDS011;65391;52.068;4.542;2024-01-30T02:37:43;14.4;;;7.5;;
76548;SDS011;65391;52.068;4.542;2024-01-30T02:40:08;14.4;;;7.5;;
76548;SDS011;65391;52.068;4.542;2024-01-30T02:42:33;14.4;;;7.5;;
76548;SDS011;65391;52.068;4.542;2024-01-30T02:44:58;12.5;;;6.8;;
76548;SDS011;65391;52.068;4.542;2024-01-30T02:47:23;12.5;;;6.8;;
76548;SDS011;65391;52.068;4.542;2024-01-30T02:49:48;12.5;;;6.8;;
76548;SDS011;65391;52.068;4.542;2024-01-30T02:52:13;12.5;;;6.8;;
76548;SDS011;65391;52.068;4.542;2024-01-30T02:54:38;12.7;;;6.7;;
76548;SDS011;65391;52.068;4.542;2024-01-30T02:57:03;12.7;;;6.7;;
76548;SDS011;65391;52.068;4.542;2024-01-30T02:59:28;12.7;;;6.7;;
76548;SDS011;65391;52.068;4.542;2024-01-30T03:01:53;12.7;;;6.7;;
76548;SDS011;65391;52.068;4.542;2024-01-30T03:04:18;14.7;;;6.8;;
76548;SDS011;65391;52.068;4.542;2024-01-30T03:06:45;14.7;;;6.8;;
76548;SDS011;65391;52.068;4.542;2024-01-30T03:09:08;14.7;;;6.8;;
76548;SDS011;65391;52.068;4.542;2024-01-30T03:11:33;14.7;;;6.8;;
76548;SDS011;65391;52.068;4.542;2024-01-30T03:13:58;13.1;;;6.8;;
76548;SDS011;65391;52.068;4.542;2024-01-30T03:16:23;13.1;;;6.8;;
76548;SDS011;65391;52.068;4.542;2024-01-30T03:18:49;13.1;;;6.8;;
76548;SDS011;65391;52.068;4.542;2024-01-30T03:21:13;13.1;;;6.8;;
76548;SDS011;65391;52.068;4.542;2024-01-30T03:23:38;13.4;;;6.4;;
76548;SDS011;65391;52.068;4.542;2024-01-30T03:26:03;13.4;;;6.4;;
76548;SDS011;65391;52.068;4.542;2024-01-30T03:28:28;13.4;;;6.4;;
76548;SDS011;65391;52.068;4.542;2024-01-30T03:30:53;13.4;;;6.4;;
76548;SDS011;65391;52.068;4.542;2024-01-30T03:33:18;15.8;;;7.5;;
76548;SDS011;65391;52.068;4.542;2024-01-30T03:35:43;15.8;;;7.5;;
76548;SDS011;65391;52.068;4.542;2024-01-30T03:38:08;15.8;;;7.5;;
76548;SDS011;65391;52.068;4.542;2024-01-30T03:40:33;15.8;;;7.5;;
76548;SDS011;65391;52.068;4.542;2024-01-30T03:42:58;15.8;;;7.5;;
76548;SDS011;65391;52.068;4.542;2024-01-30T03:45:23;13.3;;;6.7;;
76548;SDS011;65391;52.068;4.542;2024-01-30T03:47:48;13.3;;;6.7;;
76548;SDS011;65391;52.068;4.542;2024-01-30T03:50:13;13.3;;;6.7;;
76548;SDS011;65391;52.068;4.542;2024-01-30T03:52:38;13.3;;;6.7;;
76548;SDS011;65391;52.068;4.542;2024-01-30T03:55:03;12.1;;;6.9;;
76548;SDS011;65391;52.068;4.542;2024-01-30T03:57:28;12.1;;;6.9;;
76548;SDS011;65391;52.068;4.542;2024-01-30T03:59:53;12.1;;;6.9;;
76548;SDS011;65391;52.068;4.542;2024-01-30T04:02:18;12.1;;;6.9;;
76548;SDS011;65391;52.068;4.542;2024-01-30T04:04:43;13.3;;;6.7;;
76548;SDS011;65391;52.068;4.542;2024-01-30T04:07:08;13.3;;;6.7;;
76548;SDS011;65391;52.068;4.542;2024-01-30T04:09:33;13.3;;;6.7;;
76548;SDS011;65391;52.068;4.542;2024-01-30T04:11:58;13.3;;;6.7;;
76548;SDS011;65391;52.068;4.542;2024-01-30T04:14:23;13.7;;;6.9;;
76548;SDS011;65391;52.068;4.542;2024-01-30T04:16:48;13.7;;;6.9;;
76548;SDS011;65391;52.068;4.542;2024-01-30T04:19:13;13.7;;;6.9;;
76548;SDS011;65391;52.068;4.542;2024-01-30T04:21:38;13.7;;;6.9;;
76548;SDS011;65391;52.068;4.542;2024-01-30T04:24:03;13.2;;;6.8;;
76548;SDS011;65391;52.068;4.542;2024-01-30T04:26:28;13.2;;;6.8;;
76548;SDS011;65391;52.068;4.542;2024-01-30T04:28:53;13.2;;;6.8;;
76548;SDS011;65391;52.068;4.542;2024-01-30T04:31:18;13.2;;;6.8;;
76548;SDS011;65391;52.068;4.542;2024-01-30T04:33:43;10.4;;;6;;
76548;SDS011;65391;52.068;4.542;2024-01-30T04:36:08;10.4;;;6;;
76548;SDS011;65391;52.068;4.542;2024-01-30T04:38:33;10.4;;;6;;
76548;SDS011;65391;52.068;4.542;2024-01-30T04:40:58;10.4;;;6;;
76548;SDS011;65391;52.068;4.542;2024-01-30T04:43:23;11.1;;;6.1;;
76548;SDS011;65391;52.068;4.542;2024-01-30T04:45:49;11.1;;;6.1;;
76548;SDS011;65391;52.068;4.542;2024-01-30T04:48:13;11.1;;;6.1;;
76548;SDS011;65391;52.068;4.542;2024-01-30T04:50:38;11.1;;;6.1;;
76548;SDS011;65391;52.068;4.542;2024-01-30T04:53:03;11.1;;;6.1;;
76548;SDS011;65391;52.068;4.542;2024-01-30T04:55:28;14;;;7.2;;
76548;SDS011;65391;52.068;4.542;2024-01-30T04:57:53;14;;;7.2;;
76548;SDS011;65391;52.068;4.542;2024-01-30T05:00:18;14;;;7.2;;
76548;SDS011;65391;52.068;4.542;2024-01-30T05:02:46;14;;;7.2;;
76548;SDS011;65391;52.068;4.542;2024-01-30T05:05:08;12.6;;;7.2;;
76548;SDS011;65391;52.068;4.542;2024-01-30T05:07:33;12.6;;;7.2;;
76548;SDS011;65391;52.068;4.542;2024-01-30T05:09:58;12.6;;;7.2;;
76548;SDS011;65391;52.068;4.542;2024-01-30T05:12:23;12.6;;;7.2;;
76548;SDS011;65391;52.068;4.542;2024-01-30T05:14:48;10.7;;;6.5;;
76548;SDS011;65391;52.068;4.542;2024-01-30T05:17:13;10.7;;;6.5;;
76548;SDS011;65391;52.068;4.542;2024-01-30T05:19:38;10.7;;;6.5;;
76548;SDS011;65391;52.068;4.542;2024-01-30T05:22:03;10.7;;;6.5;;
76548;SDS011;65391;52.068;4.542;2024-01-30T05:24:28;13.6;;;6.9;;
76548;SDS011;65391;52.068;4.542;2024-01-30T05:26:53;13.6;;;6.9;;
76548;SDS011;65391;52.068;4.542;2024-01-30T05:29:18;13.6;;;6.9;;
76548;SDS011;65391;52.068;4.542;2024-01-30T05:31:43;13.6;;;6.9;;
76548;SDS011;65391;52.068;4.542;2024-01-30T05:34:08;11.9;;;7.3;;
76548;SDS011;65391;52.068;4.542;2024-01-30T05:36:33;11.9;;;7.3;;
76548;SDS011;65391;52.068;4.542;2024-01-30T05:39:00;11.9;;;7.3;;
76548;SDS011;65391;52.068;4.542;2024-01-30T05:41:23;11.9;;;7.3;;
76548;SDS011;65391;52.068;4.542;2024-01-30T05:43:48;13.5;;;6.7;;
76548;SDS011;65391;52.068;4.542;2024-01-30T05:46:13;13.5;;;6.7;;
76548;SDS011;65391;52.068;4.542;2024-01-30T05:48:38;13.5;;;6.7;;
76548;SDS011;65391;52.068;4.542;2024-01-30T05:51:03;13.5;;;6.7;;
76548;SDS011;65391;52.068;4.542;2024-01-30T05:53:28;12.2;;;6.7;;
76548;SDS011;65391;52.068;4.542;2024-01-30T05:55:53;12.2;;;6.7;;
76548;SDS011;65391;52.068;4.542;2024-01-30T05:58:18;12.2;;;6.7;;
76548;SDS011;65391;52.068;4.542;2024-01-30T06:00:43;12.2;;;6.7;;
76548;SDS011;65391;52.068;4.542;2024-01-30T06:03:10;12.2;;;6.7;;
76548;SDS011;65391;52.068;4.542;2024-01-30T06:05:33;11.1;;;6.4;;
76548;SDS011;65391;52.068;4.542;2024-01-30T06:07:58;11.1;;;6.4;;
76548;SDS011;65391;52.068;4.542;2024-01-30T06:10:23;11.1;;;6.4;;
76548;SDS011;65391;52.068;4.542;2024-01-30T06:12:48;11.1;;;6.4;;
76548;SDS011;65391;52.068;4.542;2024-01-30T06:15:13;14.6;;;7.6;;
76548;SDS011;65391;52.068;4.542;2024-01-30T06:17:38;14.6;;;7.6;;
76548;SDS011;65391;52.068;4.542;2024-01-30T06:20:04;14.6;;;7.6;;
76548;SDS011;65391;52.068;4.542;2024-01-30T06:22:28;14.6;;;7.6;;
76548;SDS011;65391;52.068;4.542;2024-01-30T06:24:53;12.8;;;6.4;;
76548;SDS011;65391;52.068;4.542;2024-01-30T06:27:18;12.8;;;6.4;;
76548;SDS011;65391;52.068;4.542;2024-01-30T06:29:43;12.8;;;6.4;;
76548;SDS011;65391;52.068;4.542;2024-01-30T06:32:08;12.8;;;6.4;;
76548;SDS011;65391;52.068;4.542;2024-01-30T06:34:33;12.3;;;7;;
76548;SDS011;65391;52.068;4.542;2024-01-30T06:36:58;12.3;;;7;;
76548;SDS011;65391;52.068;4.542;2024-01-30T06:39:23;12.3;;;7;;
76548;SDS011;65391;52.068;4.542;2024-01-30T06:41:48;12.3;;;7;;
76548;SDS011;65391;52.068;4.542;2024-01-30T06:44:13;16.8;;;7;;
76548;SDS011;65391;52.068;4.542;2024-01-30T06:46:38;16.8;;;7;;
76548;SDS011;65391;52.068;4.542;2024-01-30T06:49:03;16.8;;;7;;
76548;SDS011;65391;52.068;4.542;2024-01-30T06:51:28;16.8;;;7;;
76548;SDS011;65391;52.068;4.542;2024-01-30T06:53:53;11.4;;;7.2;;
76548;SDS011;65391;52.068;4.542;2024-01-30T06:56:18;11.4;;;7.2;;
76548;SDS011;65391;52.068;4.542;2024-01-30T06:58:43;11.4;;;7.2;;
76548;SDS011;65391;52.068;4.542;2024-01-30T07:01:08;11.4;;;7.2;;
76548;SDS011;65391;52.068;4.542;2024-01-30T07:03:33;13.1;;;6.7;;
76548;SDS011;65391;52.068;4.542;2024-01-30T07:05:58;13.1;;;6.7;;
76548;SDS011;65391;52.068;4.542;2024-01-30T07:08:23;13.1;;;6.7;;
76548;SDS011;65391;52.068;4.542;2024-01-30T07:10:48;13.1;;;6.7;;
76548;SDS011;65391;52.068;4.542;2024-01-30T07:13:13;13.1;;;6.7;;
76548;SDS011;65391;52.068;4.542;2024-01-30T07:15:38;13.2;;;6.3;;
76548;SDS011;65391;52.068;4.542;2024-01-30T07:18:03;13.2;;;6.3;;
76548;SDS011;65391;52.068;4.542;2024-01-30T07:20:28;13.2;;;6.3;;
76548;SDS011;65391;52.068;4.542;2024-01-30T07:22:55;13.2;;;6.3;;
76548;SDS011;65391;52.068;4.542;2024-01-30T07:25:18;13.5;;;7.1;;
76548;SDS011;65391;52.068;4.542;2024-01-30T07:27:43;13.5;;;7.1;;
76548;SDS011;65391;52.068;4.542;2024-01-30T07:30:08;13.5;;;7.1;;
76548;SDS011;65391;52.068;4.542;2024-01-30T07:32:33;13.5;;;7.1;;
76548;SDS011;65391;52.068;4.542;2024-01-30T07:34:58;10.8;;;6.4;;
76548;SDS011;65391;52.068;4.542;2024-01-30T07:37:23;10.8;;;6.4;;
76548;SDS011;65391;52.068;4.542;2024-01-30T07:39:48;10.8;;;6.4;;
76548;SDS011;65391;52.068;4.542;2024-01-30T07:42:13;10.8;;;6.4;;
76548;SDS011;65391;52.068;4.542;2024-01-30T07:44:38;12.7;;;6.6;;
76548;SDS011;65391;52.068;4.542;2024-01-30T07:47:04;12.7;;;6.6;;
76548;SDS011;65391;52.068;4.542;2024-01-30T07:49:28;12.7;;;6.6;;
76548;SDS011;65391;52.068;4.542;2024-01-30T07:51:53;12.7;;;6.6;;
76548;SDS011;65391;52.068;4.542;2024-01-30T07:54:18;16.4;;;7.1;;
76548;SDS011;65391;52.068;4.542;2024-01-30T07:56:43;16.4;;;7.1;;
76548;SDS011;65391;52.068;4.542;2024-01-30T07:59:09;16.4;;;7.1;;
76548;SDS011;65391;52.068;4.542;2024-01-30T08:01:33;16.4;;;7.1;;
76548;SDS011;65391;52.068;4.542;2024-01-30T08:03:58;16.9;;;6.8;;
76548;SDS011;65391;52.068;4.542;2024-01-30T08:06:23;16.9;;;6.8;;
76548;SDS011;65391;52.068;4.542;2024-01-30T08:08:48;16.9;;;6.8;;
76548;SDS011;65391;52.068;4.542;2024-01-30T08:11:13;16.9;;;6.8;;
76548;SDS011;65391;52.068;4.542;2024-01-30T08:13:38;13.7;;;6.4;;
76548;SDS011;65391;52.068;4.542;2024-01-30T08:16:06;13.7;;;6.4;;
76548;SDS011;65391;52.068;4.542;2024-01-30T08:18:28;13.7;;;6.4;;
76548;SDS011;65391;52.068;4.542;2024-01-30T08:20:55;13.7;;;6.4;;
76548;SDS011;65391;52.068;4.542;2024-01-30T08:23:18;13.7;;;6.4;;
76548;SDS011;65391;52.068;4.542;2024-01-30T08:25:43;15.9;;;7.6;;
76548;SDS011;65391;52.068;4.542;2024-01-30T08:28:08;15.9;;;7.6;;
76548;SDS011;65391;52.068;4.542;2024-01-30T08:30:33;15.9;;;7.6;;
76548;SDS011;65391;52.068;4.542;2024-01-30T08:32:58;15.9;;;7.6;;
76548;SDS011;65391;52.068;4.542;2024-01-30T08:35:23;18.3;;;7.2;;
76548;SDS011;65391;52.068;4.542;2024-01-30T08:37:48;18.3;;;7.2;;
76548;SDS011;65391;52.068;4.542;2024-01-30T08:40:16;18.3;;;7.2;;
76548;SDS011;65391;52.068;4.542;2024-01-30T08:42:38;18.3;;;7.2;;
76548;SDS011;65391;52.068;4.542;2024-01-30T08:45:04;17;;;7.3;;
76548;SDS011;65391;52.068;4.542;2024-01-30T08:47:28;17;;;7.3;;
76548;SDS011;65391;52.068;4.542;2024-01-30T08:49:53;17;;;7.3;;
76548;SDS011;65391;52.068;4.542;2024-01-30T08:52:18;17;;;7.3;;
76548;SDS011;65391;52.068;4.542;2024-01-30T08:54:43;16.7;;;7.3;;
76548;SDS011;65391;52.068;4.542;2024-01-30T08:57:08;16.7;;;7.3;;
76548;SDS011;65391;52.068;4.542;2024-01-30T08:59:33;16.7;;;7.3;;
76548;SDS011;65391;52.068;4.542;2024-01-30T09:01:58;16.7;;;7.3;;
76548;SDS011;65391;52.068;4.542;2024-01-30T09:04:23;16.1;;;7.7;;
76548;SDS011;65391;52.068;4.542;2024-01-30T09:06:48;16.1;;;7.7;;
76548;SDS011;65391;52.068;4.542;2024-01-30T09:09:13;16.1;;;7.7;;
76548;SDS011;65391;52.068;4.542;2024-01-30T09:11:38;16.1;;;7.7;;
76548;SDS011;65391;52.068;4.542;2024-01-30T09:14:03;10.7;;;5;;
76548;SDS011;65391;52.068;4.542;2024-01-30T09:16:28;10.7;;;5;;
76548;SDS011;65391;52.068;4.542;2024-01-30T09:18:53;10.7;;;5;;
76548;SDS011;65391;52.068;4.542;2024-01-30T09:21:18;10.7;;;5;;
76548;SDS011;65391;52.068;4.542;2024-01-30T09:23:45;10.1;;;4.7;;
76548;SDS011;65391;52.068;4.542;2024-01-30T09:26:08;10.1;;;4.7;;
76548;SDS011;65391;52.068;4.542;2024-01-30T09:28:33;10.1;;;4.7;;
76548;SDS011;65391;52.068;4.542;2024-01-30T09:30:58;10.1;;;4.7;;
76548;SDS011;65391;52.068;4.542;2024-01-30T09:33:23;10.1;;;4.7;;
76548;SDS011;65391;52.068;4.542;2024-01-30T09:35:48;12.7;;;5.1;;
76548;SDS011;65391;52.068;4.542;2024-01-30T09:38:13;12.7;;;5.1;;
76548;SDS011;65391;52.068;4.542;2024-01-30T09:40:38;12.7;;;5.1;;
76548;SDS011;65391;52.068;4.542;2024-01-30T09:43:03;12.7;;;5.1;;
76548;SDS011;65391;52.068;4.542;2024-01-30T09:45:28;11.1;;;3.9;;
76548;SDS011;65391;52.068;4.542;2024-01-30T09:47:53;11.1;;;3.9;;
76548;SDS011;65391;52.068;4.542;2024-01-30T09:50:18;11.1;;;3.9;;
76548;SDS011;65391;52.068;4.542;2024-01-30T09:52:43;11.1;;;3.9;;
76548;SDS011;65391;52.068;4.542;2024-01-30T09:55:09;7.5;;;2;;
76548;SDS011;65391;52.068;4.542;2024-01-30T09:57:36;7.5;;;2;;
76548;SDS011;65391;52.068;4.542;2024-01-30T09:59:58;7.5;;;2;;
76548;SDS011;65391;52.068;4.542;2024-01-30T10:02:23;7.5;;;2;;
76548;SDS011;65391;52.068;4.542;2024-01-30T10:04:48;6.8;;;1.7;;
76548;SDS011;65391;52.068;4.542;2024-01-30T10:07:13;6.8;;;1.7;;
76548;SDS011;65391;52.068;4.542;2024-01-30T10:09:38;6.8;;;1.7;;
76548;SDS011;65391;52.068;4.542;2024-01-30T10:12:04;6.8;;;1.7;;
76548;SDS011;65391;52.068;4.542;2024-01-30T10:14:28;6.5;;;2.2;;
76548;SDS011;65391;52.068;4.542;2024-01-30T10:16:53;6.5;;;2.2;;
76548;SDS011;65391;52.068;4.542;2024-01-30T10:19:18;6.5;;;2.2;;
76548;SDS011;65391;52.068;4.542;2024-01-30T10:21:43;6.5;;;2.2;;
76548;SDS011;65391;52.068;4.542;2024-01-30T10:24:08;5;;;1.1;;
76548;SDS011;65391;52.068;4.542;2024-01-30T10:26:33;5;;;1.1;;
76548;SDS011;65391;52.068;4.542;2024-01-30T10:28:58;5;;;1.1;;
76548;SDS011;65391;52.068;4.542;2024-01-30T10:31:23;5;;;1.1;;
76548;SDS011;65391;52.068;4.542;2024-01-30T10:33:48;3.9;;;1.1;;
76548;SDS011;65391;52.068;4.542;2024-01-30T10:36:13;3.9;;;1.1;;
76548;SDS011;65391;52.068;4.542;2024-01-30T10:38:38;3.9;;;1.1;;
76548;SDS011;65391;52.068;4.542;2024-01-30T10:41:03;3.9;;;1.1;;
76548;SDS011;65391;52.068;4.542;2024-01-30T10:43:30;3.9;;;1.1;;
76548;SDS011;65391;52.068;4.542;2024-01-30T10:48:04;6.4;;;1.2;;
76548;SDS011;65391;52.068;4.542;2024-01-30T10:50:28;6.4;;;1.2;;
76548;SDS011;65391;52.068;4.542;2024-01-30T10:52:53;6.4;;;1.2;;
76548;SDS011;65391;52.068;4.542;2024-01-30T10:55:18;4.1;;;1;;
76548;SDS011;65391;52.068;4.542;2024-01-30T10:57:43;4.1;;;1;;
76548;SDS011;65391;52.068;4.542;2024-01-30T11:00:13;4.1;;;1;;
76548;SDS011;65391;52.068;4.542;2024-01-30T11:02:33;4.1;;;1;;
76548;SDS011;65391;52.068;4.542;2024-01-30T11:04:58;1.9;;;1.2;;
76548;SDS011;65391;52.068;4.542;2024-01-30T11:07:24;1.9;;;1.2;;
76548;SDS011;65391;52.068;4.542;2024-01-30T11:09:49;1.9;;;1.2;;
76548;SDS011;65391;52.068;4.542;2024-01-30T11:12:15;1.9;;;1.2;;
76548;SDS011;65391;52.068;4.542;2024-01-30T11:14:38;3.6;;;0.8;;
76548;SDS011;65391;52.068;4.542;2024-01-30T11:17:03;3.6;;;0.8;;
76548;SDS011;65391;52.068;4.542;2024-01-30T11:19:30;3.6;;;0.8;;
76548;SDS011;65391;52.068;4.542;2024-01-30T11:21:53;3.6;;;0.8;;
76548;SDS011;65391;52.068;4.542;2024-01-30T11:24:18;2.9;;;1;;
76548;SDS011;65391;52.068;4.542;2024-01-30T11:26:43;2.9;;;1;;
76548;SDS011;65391;52.068;4.542;2024-01-30T11:29:08;2.9;;;1;;
76548;SDS011;65391;52.068;4.542;2024-01-30T11:31:33;2.9;;;1;;
76548;SDS011;65391;52.068;4.542;2024-01-30T11:33:58;6.1;;;0.9;;
76548;SDS011;65391;52.068;4.542;2024-01-30T11:36:25;6.1;;;0.9;;
76548;SDS011;65391;52.068;4.542;2024-01-30T11:38:48;6.1;;;0.9;;
76548;SDS011;65391;52.068;4.542;2024-01-30T11:41:13;6.1;;;0.9;;
76548;SDS011;65391;52.068;4.542;2024-01-30T11:43:38;6.1;;;0.9;;
76548;SDS011;65391;52.068;4.542;2024-01-30T11:46:04;6.5;;;1.2;;
76548;SDS011;65391;52.068;4.542;2024-01-30T11:48:28;6.5;;;1.2;;
76548;SDS011;65391;52.068;4.542;2024-01-30T11:50:53;6.5;;;1.2;;
76548;SDS011;65391;52.068;4.542;2024-01-30T11:53:18;6.5;;;1.2;;
76548;SDS011;65391;52.068;4.542;2024-01-30T11:55:49;5.3;;;0.8;;
76548;SDS011;65391;52.068;4.542;2024-01-30T11:58:08;5.3;;;0.8;;
76548;SDS011;65391;52.068;4.542;2024-01-30T12:00:33;5.3;;;0.8;;
76548;SDS011;65391;52.068;4.542;2024-01-30T12:02:58;5.3;;;0.8;;
76548;SDS011;65391;52.068;4.542;2024-01-30T12:05:23;7.3;;;1.2;;
76548;SDS011;65391;52.068;4.542;2024-01-30T12:07:48;7.3;;;1.2;;
76548;SDS011;65391;52.068;4.542;2024-01-30T12:10:13;7.3;;;1.2;;
76548;SDS011;65391;52.068;4.542;2024-01-30T12:12:38;7.3;;;1.2;;
76548;SDS011;65391;52.068;4.542;2024-01-30T12:15:03;4.4;;;0.8;;
76548;SDS011;65391;52.068;4.542;2024-01-30T12:17:29;4.4;;;0.8;;
76548;SDS011;65391;52.068;4.542;2024-01-30T12:20:02;4.4;;;0.8;;
76548;SDS011;65391;52.068;4.542;2024-01-30T12:22:18;4.4;;;0.8;;
76548;SDS011;65391;52.068;4.542;2024-01-30T12:24:43;5.2;;;1.2;;
76548;SDS011;65391;52.068;4.542;2024-01-30T12:27:08;5.2;;;1.2;;
76548;SDS011;65391;52.068;4.542;2024-01-30T12:29:33;5.2;;;1.2;;
76548;SDS011;65391;52.068;4.542;2024-01-30T12:31:58;5.2;;;1.2;;
76548;SDS011;65391;52.068;4.542;2024-01-30T12:34:24;8;;;1.3;;
76548;SDS011;65391;52.068;4.542;2024-01-30T12:36:48;8;;;1.3;;
76548;SDS011;65391;52.068;4.542;2024-01-30T12:39:13;8;;;1.3;;
76548;SDS011;65391;52.068;4.542;2024-01-30T12:41:38;8;;;1.3;;
76548;SDS011;65391;52.068;4.542;2024-01-30T12:44:03;8.5;;;1.3;;
76548;SDS011;65391;52.068;4.542;2024-01-30T12:46:28;8.5;;;1.3;;
76548;SDS011;65391;52.068;4.542;2024-01-30T12:48:53;8.5;;;1.3;;
76548;SDS011;65391;52.068;4.542;2024-01-30T12:51:18;8.5;;;1.3;;
76548;SDS011;65391;52.068;4.542;2024-01-30T12:53:43;8.5;;;1.3;;
76548;SDS011;65391;52.068;4.542;2024-01-30T12:56:08;6.8;;;1.9;;
76548;SDS011;65391;52.068;4.542;2024-01-30T12:58:33;6.8;;;1.9;;
76548;SDS011;65391;52.068;4.542;2024-01-30T13:00:58;6.8;;;1.9;;
76548;SDS011;65391;52.068;4.542;2024-01-30T13:03:23;6.8;;;1.9;;
76548;SDS011;65391;52.068;4.542;2024-01-30T13:05:48;6.1;;;1;;
76548;SDS011;65391;52.068;4.542;2024-01-30T13:08:13;6.1;;;1;;
76548;SDS011;65391;52.068;4.542;2024-01-30T13:10:38;6.1;;;1;;
76548;SDS011;65391;52.068;4.542;2024-01-30T13:13:03;6.1;;;1;;
76548;SDS011;65391;52.068;4.542;2024-01-30T13:15:28;5.6;;;1.1;;
76548;SDS011;65391;52.068;4.542;2024-01-30T13:17:53;5.6;;;1.1;;
76548;SDS011;65391;52.068;4.542;2024-01-30T13:20:18;5.6;;;1.1;;
76548;SDS011;65391;52.068;4.542;2024-01-30T13:22:43;5.6;;;1.1;;
76548;SDS011;65391;52.068;4.542;2024-01-30T13:25:08;1.5;;;0.8;;
76548;SDS011;65391;52.068;4.542;2024-01-30T13:27:33;1.5;;;0.8;;
76548;SDS011;65391;52.068;4.542;2024-01-30T13:29:58;1.5;;;0.8;;
76548;SDS011;65391;52.068;4.542;2024-01-30T13:32:23;1.5;;;0.8;;
76548;SDS011;65391;52.068;4.542;2024-01-30T13:34:48;4.3;;;1.3;;
76548;SDS011;65391;52.068;4.542;2024-01-30T13:37:13;4.3;;;1.3;;
76548;SDS011;65391;52.068;4.542;2024-01-30T13:39:38;4.3;;;1.3;;
76548;SDS011;65391;52.068;4.542;2024-01-30T13:42:03;4.3;;;1.3;;
76548;SDS011;65391;52.068;4.542;2024-01-30T13:44:28;3.4;;;1.3;;
76548;SDS011;65391;52.068;4.542;2024-01-30T13:46:53;3.4;;;1.3;;
76548;SDS011;65391;52.068;4.542;2024-01-30T13:49:18;3.4;;;1.3;;
76548;SDS011;65391;52.068;4.542;2024-01-30T13:51:43;3.4;;;1.3;;
76548;SDS011;65391;52.068;4.542;2024-01-30T13:54:08;4.1;;;1.7;;
76548;SDS011;65391;52.068;4.542;2024-01-30T13:56:33;4.1;;;1.7;;
76548;SDS011;65391;52.068;4.542;2024-01-30T13:58:58;4.1;;;1.7;;
76548;SDS011;65391;52.068;4.542;2024-01-30T14:01:23;4.1;;;1.7;;
76548;SDS011;65391;52.068;4.542;2024-01-30T14:03:48;4.1;;;1.7;;
76548;SDS011;65391;52.068;4.542;2024-01-30T14:06:13;8.3;;;2.4;;
76548;SDS011;65391;52.068;4.542;2024-01-30T14:08:38;8.3;;;2.4;;
76548;SDS011;65391;52.068;4.542;2024-01-30T14:11:03;8.3;;;2.4;;
76548;SDS011;65391;52.068;4.542;2024-01-30T14:13:28;8.3;;;2.4;;
76548;SDS011;65391;52.068;4.542;2024-01-30T14:15:56;4.7;;;1.8;;
76548;SDS011;65391;52.068;4.542;2024-01-30T14:18:18;4.7;;;1.8;;
76548;SDS011;65391;52.068;4.542;2024-01-30T14:20:43;4.7;;;1.8;;
76548;SDS011;65391;52.068;4.542;2024-01-30T14:23:08;4.7;;;1.8;;
76548;SDS011;65391;52.068;4.542;2024-01-30T14:25:33;5.8;;;2.2;;
76548;SDS011;65391;52.068;4.542;2024-01-30T14:27:58;5.8;;;2.2;;
76548;SDS011;65391;52.068;4.542;2024-01-30T14:30:23;5.8;;;2.2;;
76548;SDS011;65391;52.068;4.542;2024-01-30T14:32:48;5.8;;;2.2;;
76548;SDS011;65391;52.068;4.542;2024-01-30T14:35:13;4.7;;;2.3;;
76548;SDS011;65391;52.068;4.542;2024-01-30T14:37:38;4.7;;;2.3;;
76548;SDS011;65391;52.068;4.542;2024-01-30T14:40:04;4.7;;;2.3;;
76548;SDS011;65391;52.068;4.542;2024-01-30T14:42:28;4.7;;;2.3;;
76548;SDS011;65391;52.068;4.542;2024-01-30T14:44:53;5;;;2.5;;
76548;SDS011;65391;52.068;4.542;2024-01-30T14:47:18;5;;;2.5;;
76548;SDS011;65391;52.068;4.542;2024-01-30T14:49:43;5;;;2.5;;
76548;SDS011;65391;52.068;4.542;2024-01-30T14:52:08;5;;;2.5;;
76548;SDS011;65391;52.068;4.542;2024-01-30T14:54:33;4;;;2.1;;
76548;SDS011;65391;52.068;4.542;2024-01-30T14:56:58;4;;;2.1;;
76548;SDS011;65391;52.068;4.542;2024-01-30T14:59:23;4;;;2.1;;